createdAt,value
2017-09-27T00:00:00.922Z,25.10
2017-09-27T00:02:30.104Z,24.97
2017-09-27T00:04:58.475Z,24.23
2017-09-27T00:07:26.890Z,24.40
2017-09-27T00:09:55.282Z,24.83
2017-09-27T00:12:23.667Z,23.10
2017-09-27T00:14:52.736Z,24.57
2017-09-27T00:17:21.924Z,26.33
2017-09-27T00:19:50.563Z,25.23
2017-09-27T00:22:19.069Z,25.47
2017-09-27T00:24:47.488Z,23.90
2017-09-27T00:27:15.865Z,23.20
2017-09-27T00:29:44.324Z,24.73
2017-09-27T00:32:12.744Z,23.70
2017-09-27T00:34:41.154Z,24.53
2017-09-27T00:37:10.776Z,22.17
2017-09-27T00:39:39.144Z,26.73
2017-09-27T00:42:07.543Z,25.60
2017-09-27T00:44:36.081Z,26.10
2017-09-27T00:47:04.473Z,25.63
2017-09-27T00:49:32.856Z,28.57
2017-09-27T00:52:01.454Z,27.87
2017-09-27T00:54:29.857Z,26.30
2017-09-27T00:56:59.041Z,25.60
2017-09-27T00:59:27.649Z,26.17
2017-09-27T01:01:57.424Z,24.50
2017-09-27T01:04:25.792Z,26.33
2017-09-27T01:06:54.213Z,22.57
2017-09-27T01:09:23.365Z,24.53
2017-09-27T01:11:51.764Z,25.80
2017-09-27T01:14:20.176Z,24.63
2017-09-27T01:16:49.378Z,22.57
2017-09-27T01:19:18.556Z,25.73
2017-09-27T01:21:47.993Z,23.23
2017-09-27T01:24:16.410Z,25.27
2017-09-27T01:26:44.813Z,26.30
2017-09-27T01:29:13.642Z,24.53
2017-09-27T01:31:42.021Z,26.87
2017-09-27T01:34:10.467Z,28.07
2017-09-27T01:36:39.234Z,26.07
2017-09-27T01:39:07.631Z,23.47
2017-09-27T01:41:36.049Z,25.50
2017-09-27T01:44:04.667Z,28.27
2017-09-27T01:46:33.336Z,29.33
2017-09-27T01:49:01.748Z,26.10
2017-09-27T01:51:30.313Z,26.60
2017-09-27T01:53:58.757Z,26.70
2017-09-27T01:56:27.158Z,26.87
2017-09-27T01:58:55.656Z,27.90
2017-09-27T02:01:24.116Z,28.40
2017-09-27T02:03:53.778Z,26.90
2017-09-27T02:06:22.983Z,28.90
2017-09-27T02:08:51.377Z,28.10
2017-09-27T02:11:19.739Z,28.30
2017-09-27T02:13:49.073Z,27.77
2017-09-27T02:16:17.459Z,28.00
2017-09-27T02:18:45.812Z,29.73
2017-09-27T02:21:15.034Z,27.27
2017-09-27T02:23:43.725Z,27.20
2017-09-27T02:26:12.133Z,28.17
2017-09-27T02:28:40.907Z,28.13
2017-09-27T02:31:09.262Z,25.60
2017-09-27T02:33:37.626Z,26.83
2017-09-27T02:36:06.188Z,31.00
2017-09-27T02:38:35.303Z,29.13
2017-09-27T02:41:03.672Z,28.70
2017-09-27T02:43:32.294Z,25.87
2017-09-27T02:46:00.674Z,28.60
2017-09-27T02:48:29.074Z,27.47
2017-09-27T02:50:57.482Z,28.53
2017-09-27T02:53:26.628Z,29.50
2017-09-27T02:55:54.979Z,29.70
2017-09-27T02:58:23.409Z,25.70
2017-09-27T03:00:52.708Z,27.80
2017-09-27T03:03:21.110Z,28.67
2017-09-27T03:05:50.790Z,30.67
2017-09-27T03:08:19.161Z,29.37
2017-09-27T03:10:47.525Z,30.30
2017-09-27T03:13:16.023Z,29.37
2017-09-27T03:15:44.407Z,31.60
2017-09-27T03:18:12.817Z,28.33
2017-09-27T03:20:42.358Z,29.70
2017-09-27T03:23:11.504Z,29.40
2017-09-27T03:25:40.309Z,28.00
2017-09-27T03:28:09.493Z,26.93
2017-09-27T03:30:37.853Z,32.57
2017-09-27T03:33:06.220Z,28.10
2017-09-27T03:35:34.697Z,27.50
2017-09-27T03:38:04.441Z,27.50
2017-09-27T03:40:32.852Z,26.00
2017-09-27T03:43:01.252Z,28.00
2017-09-27T03:45:29.612Z,28.17
2017-09-27T03:47:57.992Z,28.53
2017-09-27T03:50:26.684Z,26.20
2017-09-27T03:52:55.064Z,28.27
2017-09-27T03:55:23.418Z,19.50
2017-09-27T03:57:52.694Z,25.67
2017-09-27T04:00:21.064Z,28.30
2017-09-27T04:02:49.456Z,29.23
2017-09-27T04:05:18.195Z,28.87
2017-09-27T04:07:46.753Z,25.93
2017-09-27T04:10:15.880Z,25.03
2017-09-27T04:12:44.284Z,24.50
2017-09-27T04:15:12.831Z,25.90
2017-09-27T04:17:41.197Z,24.90
2017-09-27T04:20:09.763Z,26.10
2017-09-27T04:22:38.928Z,28.03
2017-09-27T04:25:07.311Z,25.47
2017-09-27T04:27:36.293Z,25.30
2017-09-27T04:30:04.713Z,27.83
2017-09-27T04:32:33.884Z,25.43
2017-09-27T04:35:02.390Z,24.20
2017-09-27T04:37:31.559Z,24.13
2017-09-27T04:40:01.912Z,27.77
2017-09-27T04:42:30.368Z,29.57
2017-09-27T04:44:58.788Z,27.60
2017-09-27T04:47:27.184Z,26.23
2017-09-27T04:49:55.927Z,27.03
2017-09-27T04:52:25.236Z,25.00
2017-09-27T04:54:54.347Z,26.13
2017-09-27T04:57:22.953Z,25.20
2017-09-27T04:59:51.328Z,28.30
2017-09-27T05:02:19.735Z,27.00
2017-09-27T05:04:48.421Z,27.57
2017-09-27T05:07:16.822Z,24.43
2017-09-27T05:09:45.567Z,25.83
2017-09-27T05:12:14.092Z,22.13
2017-09-27T05:14:43.317Z,26.23
2017-09-27T05:17:12.463Z,25.80
2017-09-27T05:19:41.175Z,23.57
2017-09-27T05:22:09.579Z,23.67
2017-09-27T05:24:37.967Z,23.07
2017-09-27T05:27:06.541Z,23.20
2017-09-27T05:29:35.176Z,24.13
2017-09-27T05:32:03.810Z,23.10
2017-09-27T05:34:32.230Z,24.17
2017-09-27T05:37:01.366Z,23.67
2017-09-27T05:39:29.742Z,23.80
2017-09-27T05:41:58.247Z,23.33
2017-09-27T05:44:26.630Z,24.97
2017-09-27T05:46:55.002Z,23.00
2017-09-27T05:49:25.051Z,23.73
2017-09-27T05:51:53.494Z,24.20
2017-09-27T05:54:23.062Z,23.13
2017-09-27T05:56:51.649Z,23.87
2017-09-27T05:59:20.076Z,23.43
2017-09-27T06:01:48.464Z,25.10
2017-09-27T06:04:16.893Z,25.80
2017-09-27T06:06:45.367Z,22.90
2017-09-27T06:09:13.743Z,22.33
2017-09-27T06:11:42.445Z,23.03
2017-09-27T06:14:10.943Z,21.90
2017-09-27T06:16:39.398Z,22.10
2017-09-27T06:19:07.830Z,23.90
2017-09-27T06:21:36.219Z,19.70
2017-09-27T06:24:04.619Z,21.93
2017-09-27T06:26:33.255Z,23.40
2017-09-27T06:29:01.628Z,22.10
2017-09-27T06:31:30.909Z,18.10
2017-09-27T06:33:59.429Z,23.87
2017-09-27T06:36:27.849Z,24.60
2017-09-27T06:38:56.236Z,23.73
2017-09-27T06:41:24.640Z,24.10
2017-09-27T06:43:53.069Z,21.63
2017-09-27T06:46:22.323Z,23.77
2017-09-27T06:48:51.687Z,22.73
2017-09-27T06:51:20.083Z,23.50
2017-09-27T06:53:48.583Z,23.80
2017-09-27T06:56:17.147Z,21.47
2017-09-27T06:58:45.579Z,20.80
2017-09-27T07:01:13.972Z,22.17
2017-09-27T07:03:43.047Z,20.70
2017-09-27T07:06:12.335Z,20.50
2017-09-27T07:08:41.575Z,24.53
2017-09-27T07:11:10.237Z,20.70
2017-09-27T07:13:39.032Z,20.90
2017-09-27T07:16:08.230Z,23.10
2017-09-27T07:18:36.997Z,22.07
2017-09-27T07:21:06.225Z,21.97
2017-09-27T07:23:34.669Z,23.17
2017-09-27T07:26:03.876Z,21.00
2017-09-27T07:28:32.456Z,20.90
2017-09-27T07:31:00.888Z,20.93
2017-09-27T07:33:29.582Z,20.83
2017-09-27T07:35:58.797Z,18.67
2017-09-27T07:38:28.050Z,19.50
2017-09-27T07:40:56.893Z,20.57
2017-09-27T07:43:26.821Z,17.87
2017-09-27T07:45:55.295Z,18.30
2017-09-27T07:48:23.909Z,19.47
2017-09-27T07:50:52.341Z,19.73
2017-09-27T07:53:20.774Z,19.70
2017-09-27T07:55:49.371Z,17.57
2017-09-27T07:58:18.754Z,20.40
2017-09-27T08:00:47.184Z,23.27
2017-09-27T08:03:15.717Z,22.47
2017-09-27T08:05:44.887Z,19.87
2017-09-27T08:08:15.323Z,22.73
2017-09-27T08:10:43.832Z,23.37
2017-09-27T08:13:13.089Z,23.90
2017-09-27T08:15:42.639Z,21.37
2017-09-27T08:18:11.188Z,21.03
2017-09-27T08:20:41.376Z,21.60
2017-09-27T08:23:14.585Z,23.07
2017-09-27T08:25:43.944Z,21.90
2017-09-27T08:28:13.201Z,20.90
2017-09-27T08:30:41.822Z,23.77
2017-09-27T08:33:11.387Z,24.23
2017-09-27T08:35:39.856Z,23.30
2017-09-27T08:38:08.666Z,20.33
2017-09-27T08:40:37.096Z,20.30
2017-09-27T08:43:05.586Z,19.30
2017-09-27T08:45:35.353Z,21.03
2017-09-27T08:48:04.227Z,20.30
2017-09-27T08:50:33.529Z,22.00
2017-09-27T08:53:01.968Z,22.07
2017-09-27T08:55:30.442Z,21.40
2017-09-27T08:57:59.023Z,22.27
2017-09-27T09:00:28.555Z,19.00
2017-09-27T09:02:57.717Z,21.30
2017-09-27T09:05:29.955Z,20.90
2017-09-27T09:07:58.387Z,19.60
2017-09-27T09:10:27.721Z,19.57
2017-09-27T09:12:57.638Z,20.07
2017-09-27T09:15:27.149Z,18.53
2017-09-27T09:17:56.603Z,20.50
2017-09-27T09:20:25.491Z,19.60
2017-09-27T09:22:54.083Z,20.67
2017-09-27T09:25:23.274Z,19.20
2017-09-27T09:27:51.992Z,17.97
2017-09-27T09:30:22.044Z,20.60
2017-09-27T09:32:51.552Z,18.80
2017-09-27T09:35:20.267Z,21.43
2017-09-27T09:37:48.757Z,18.70
2017-09-27T09:40:17.214Z,19.50
2017-09-27T09:42:45.848Z,19.90
2017-09-27T09:45:15.200Z,17.67
2017-09-27T09:47:44.573Z,16.33
2017-09-27T09:50:13.035Z,18.00
2017-09-27T09:52:42.235Z,17.60
2017-09-27T09:55:10.664Z,17.57
2017-09-27T09:57:39.073Z,19.53
2017-09-27T10:00:07.620Z,18.53
2017-09-27T10:02:36.831Z,18.37
2017-09-27T10:05:05.403Z,17.70
2017-09-27T10:07:33.770Z,18.70
2017-09-27T10:10:02.206Z,19.60
2017-09-27T10:12:32.975Z,18.87
2017-09-27T10:15:01.376Z,18.03
2017-09-27T10:17:30.157Z,16.57
2017-09-27T10:19:59.849Z,16.43
2017-09-27T10:22:28.313Z,16.40
2017-09-27T10:24:56.743Z,17.33
2017-09-27T10:27:26.614Z,15.13
2017-09-27T10:29:55.764Z,17.60
2017-09-27T10:32:24.975Z,18.07
2017-09-27T10:34:54.183Z,18.00
2017-09-27T10:37:23.585Z,15.63
2017-09-27T10:39:52.727Z,15.33
2017-09-27T10:42:23.831Z,15.10
2017-09-27T10:44:52.450Z,15.93
2017-09-27T10:47:20.873Z,14.33
2017-09-27T10:49:49.410Z,14.77
2017-09-27T10:52:18.926Z,15.30
2017-09-27T10:54:48.560Z,15.90
2017-09-27T10:57:17.377Z,17.37
2017-09-27T10:59:45.848Z,17.47
2017-09-27T11:02:16.738Z,15.20
2017-09-27T11:04:45.244Z,16.00
2017-09-27T11:07:15.788Z,16.23
2017-09-27T11:09:44.187Z,17.97
2017-09-27T11:12:15.042Z,16.73
2017-09-27T11:14:43.679Z,16.30
2017-09-27T11:17:13.906Z,16.10
2017-09-27T11:19:42.423Z,17.73
2017-09-27T11:22:11.720Z,15.73
2017-09-27T11:24:41.113Z,17.70
2017-09-27T11:27:11.492Z,14.83
2017-09-27T11:29:39.872Z,14.87
2017-09-27T11:32:09.166Z,15.87
2017-09-27T11:34:37.928Z,15.20
2017-09-27T11:37:07.782Z,13.63
2017-09-27T11:39:36.419Z,11.07
2017-09-27T11:42:04.857Z,7.63
2017-09-27T11:44:36.001Z,8.40
2017-09-27T11:47:04.430Z,7.80
2017-09-27T11:49:33.785Z,8.70
2017-09-27T11:52:02.283Z,9.60
2017-09-27T11:54:30.703Z,9.43
2017-09-27T11:57:03.031Z,8.70
2017-09-27T11:59:32.326Z,8.20
2017-09-27T12:02:02.674Z,7.23
2017-09-27T12:04:31.304Z,9.00
2017-09-27T12:06:59.718Z,9.30
2017-09-27T12:09:28.611Z,9.00
2017-09-27T12:11:57.773Z,9.27
2017-09-27T12:14:28.489Z,9.93
2017-09-27T12:16:57.138Z,10.77
2017-09-27T12:19:26.531Z,9.43
2017-09-27T12:21:55.679Z,8.70
2017-09-27T12:24:24.402Z,8.40
2017-09-27T12:26:52.813Z,9.83
2017-09-27T12:29:22.219Z,8.40
2017-09-27T12:31:51.619Z,8.17
2017-09-27T12:34:20.760Z,8.37
2017-09-27T12:36:49.166Z,8.77
2017-09-27T12:39:19.623Z,10.20
2017-09-27T12:41:48.094Z,7.90
2017-09-27T12:44:19.516Z,9.40
2017-09-27T12:46:48.076Z,9.67
2017-09-27T12:49:16.477Z,9.87
2017-09-27T12:51:45.627Z,10.80
2017-09-27T12:54:14.218Z,10.07
2017-09-27T12:56:42.619Z,10.20
2017-09-27T12:59:11.189Z,10.00
2017-09-27T13:01:39.648Z,10.03
2017-09-27T13:04:09.702Z,9.83
2017-09-27T13:06:38.231Z,8.90
2017-09-27T13:09:06.819Z,9.33
2017-09-27T13:11:35.558Z,9.80
2017-09-27T13:14:04.102Z,9.63
2017-09-27T13:16:32.767Z,10.50
2017-09-27T13:19:01.543Z,9.10
2017-09-27T13:21:30.692Z,10.90
2017-09-27T13:23:59.882Z,10.13
2017-09-27T13:26:29.745Z,12.97
2017-09-27T13:28:59.052Z,12.20
2017-09-27T13:31:28.422Z,12.40
2017-09-27T13:33:57.429Z,12.27
2017-09-27T13:36:25.819Z,11.37
2017-09-27T13:38:56.264Z,11.70
2017-09-27T13:41:24.741Z,11.83
2017-09-27T13:43:53.482Z,13.17
2017-09-27T13:46:23.052Z,12.07
2017-09-27T13:48:51.513Z,11.33
2017-09-27T13:51:21.376Z,14.23
2017-09-27T13:53:49.981Z,11.93
2017-09-27T13:56:19.121Z,12.27
2017-09-27T13:58:48.041Z,13.00
2017-09-27T14:01:18.004Z,11.77
2017-09-27T14:03:47.272Z,12.70
2017-09-27T14:06:15.639Z,11.70
2017-09-27T14:08:45.039Z,12.60
2017-09-27T14:11:14.383Z,12.87
2017-09-27T14:13:44.665Z,12.17
2017-09-27T14:16:13.271Z,11.57
2017-09-27T14:18:42.037Z,12.10
2017-09-27T14:21:10.505Z,12.50
2017-09-27T14:23:38.943Z,13.03
2017-09-27T14:26:08.135Z,11.23
2017-09-27T14:28:37.432Z,12.17
2017-09-27T14:31:06.703Z,13.70
2017-09-27T14:33:35.141Z,12.10
2017-09-27T14:36:03.570Z,13.60
2017-09-27T14:38:32.309Z,12.40
2017-09-27T14:41:00.715Z,12.40
2017-09-27T14:43:31.477Z,11.03
2017-09-27T14:46:00.260Z,12.40
2017-09-27T14:48:28.674Z,12.40
2017-09-27T14:50:57.245Z,12.67
2017-09-27T14:53:27.775Z,12.43
2017-09-27T14:55:56.386Z,12.80
2017-09-27T14:58:26.018Z,11.40
2017-09-27T15:00:55.554Z,11.47
2017-09-27T15:03:24.102Z,11.90
2017-09-27T15:05:52.523Z,11.97
2017-09-27T15:08:21.661Z,10.47
2017-09-27T15:10:51.989Z,13.00
2017-09-27T15:13:21.270Z,12.10
2017-09-27T15:15:49.720Z,10.80
2017-09-27T15:18:18.203Z,12.53
2017-09-27T15:20:47.086Z,11.00
2017-09-27T15:23:16.619Z,10.97
2017-09-27T15:25:45.728Z,12.13
2017-09-27T15:28:15.132Z,11.10
2017-09-27T15:30:43.796Z,11.00
2017-09-27T15:33:13.020Z,11.27
2017-09-27T15:35:41.543Z,11.43
2017-09-27T15:38:10.075Z,12.60
2017-09-27T15:40:38.944Z,12.17
2017-09-27T15:43:08.641Z,12.60
2017-09-27T15:45:38.220Z,11.70
2017-09-27T15:48:06.960Z,12.20
2017-09-27T15:50:36.147Z,12.00
2017-09-27T15:53:05.436Z,11.87
2017-09-27T15:55:33.983Z,11.30
2017-09-27T15:58:02.488Z,10.87
2017-09-27T16:00:31.764Z,11.50
2017-09-27T16:03:00.226Z,12.13
2017-09-27T16:05:30.226Z,10.00
2017-09-27T16:07:59.287Z,12.83
2017-09-27T16:10:27.765Z,11.57
2017-09-27T16:12:56.504Z,11.80
2017-09-27T16:15:25.032Z,12.23
2017-09-27T16:17:53.433Z,12.23
2017-09-27T16:20:21.919Z,12.97
2017-09-27T16:22:51.399Z,15.07
2017-09-27T16:25:20.631Z,15.83
2017-09-27T16:27:49.011Z,14.77
2017-09-27T16:30:17.475Z,16.53
2017-09-27T16:32:46.760Z,16.67
2017-09-27T16:35:15.188Z,16.93
2017-09-27T16:37:43.855Z,17.87
2017-09-27T16:40:13.315Z,19.50
2017-09-27T16:42:41.716Z,17.20
2017-09-27T16:45:11.307Z,16.87
2017-09-27T16:47:39.724Z,17.20
2017-09-27T16:50:08.314Z,17.97
2017-09-27T16:52:36.796Z,20.07
2017-09-27T16:55:06.513Z,21.20
2017-09-27T16:57:35.494Z,20.90
2017-09-27T17:00:06.131Z,21.90
2017-09-27T17:02:34.591Z,21.43
2017-09-27T17:05:03.914Z,20.63
2017-09-27T17:07:33.830Z,23.27
2017-09-27T17:10:02.266Z,21.60
2017-09-27T17:12:30.735Z,21.80
2017-09-27T17:14:59.401Z,19.50
2017-09-27T17:17:27.825Z,20.10
2017-09-27T17:19:56.285Z,18.50
2017-09-27T17:22:24.987Z,20.13
2017-09-27T17:24:54.166Z,19.10
2017-09-27T17:27:22.577Z,19.77
2017-09-27T17:29:54.414Z,19.50
2017-09-27T17:32:23.531Z,19.27
2017-09-27T17:34:53.190Z,18.77
2017-09-27T17:37:22.557Z,20.03
2017-09-27T17:39:51.007Z,19.63
2017-09-27T17:42:19.459Z,20.43
2017-09-27T17:44:47.886Z,20.60
2017-09-27T17:47:17.058Z,19.97
2017-09-27T17:49:45.541Z,19.97
2017-09-27T17:52:15.991Z,19.83
2017-09-27T17:54:45.707Z,17.27
2017-09-27T17:57:14.119Z,22.17
2017-09-27T17:59:42.682Z,20.60
2017-09-27T18:02:12.915Z,20.80
2017-09-27T18:04:44.635Z,20.57
2017-09-27T18:10:23.326Z,20.80
2017-09-27T18:12:57.427Z,20.50
2017-09-27T18:15:31.751Z,22.33
2017-09-27T18:18:21.804Z,19.97
2017-09-27T18:20:50.639Z,21.00
2017-09-27T18:23:20.107Z,20.30
2017-09-27T18:25:48.677Z,23.40
2017-09-27T18:28:17.758Z,21.50
2017-09-27T18:30:48.591Z,23.80
2017-09-27T18:33:18.913Z,22.80
2017-09-27T18:35:48.269Z,23.70
2017-09-27T18:38:18.919Z,22.80
2017-09-27T18:40:49.000Z,24.40
2017-09-27T18:43:18.771Z,26.20
2017-09-27T18:45:47.168Z,25.03
2017-09-27T18:48:16.310Z,24.77
2017-09-27T18:50:45.338Z,24.73
2017-09-27T18:53:13.821Z,23.03
2017-09-27T18:55:42.868Z,23.23
2017-09-27T18:58:12.097Z,22.63
2017-09-27T19:00:40.689Z,23.50
2017-09-27T19:03:09.355Z,23.33
2017-09-27T19:05:37.927Z,25.43
2017-09-27T19:08:06.341Z,24.70
2017-09-27T19:10:34.728Z,25.60
2017-09-27T19:13:03.217Z,24.07
2017-09-27T19:15:31.678Z,24.60
2017-09-27T19:18:00.076Z,26.67
2017-09-27T19:20:29.354Z,26.90
2017-09-27T19:22:57.798Z,25.10
2017-09-27T19:25:26.155Z,25.50
2017-09-27T19:27:54.862Z,25.63
2017-09-27T19:30:23.256Z,24.93
2017-09-27T19:32:51.737Z,24.33
2017-09-27T19:35:20.201Z,26.47
2017-09-27T19:37:48.642Z,27.87
2017-09-27T19:40:17.103Z,26.60
2017-09-27T19:42:45.713Z,26.20
2017-09-27T19:45:14.925Z,26.77
2017-09-27T19:47:44.237Z,27.83
2017-09-27T19:50:12.969Z,24.57
2017-09-27T19:52:41.735Z,27.10
2017-09-27T19:55:10.154Z,29.27
2017-09-27T19:57:38.716Z,27.83
2017-09-27T20:00:07.179Z,26.90
2017-09-27T20:02:35.591Z,29.90
2017-09-27T20:05:05.350Z,29.83
2017-09-27T20:07:33.728Z,28.60
2017-09-27T20:10:02.150Z,27.20
2017-09-27T20:12:30.553Z,28.87
2017-09-27T20:15:00.796Z,29.20
2017-09-27T20:17:29.550Z,28.07
2017-09-27T20:19:58.888Z,29.40
2017-09-27T20:22:27.280Z,26.90
2017-09-27T20:24:55.662Z,29.13
2017-09-27T20:27:25.674Z,27.40
2017-09-27T20:29:57.984Z,30.43
2017-09-27T20:32:29.741Z,30.40
2017-09-27T20:34:59.162Z,30.40
2017-09-27T20:37:28.374Z,30.83
2017-09-27T20:39:58.080Z,29.30
2017-09-27T20:42:26.557Z,27.03
2017-09-27T20:44:55.761Z,30.63
2017-09-27T20:47:25.224Z,28.43
2017-09-27T20:49:53.612Z,29.73
2017-09-27T20:52:22.767Z,31.47
2017-09-27T20:54:51.212Z,33.53
2017-09-27T20:57:20.336Z,31.97
2017-09-27T20:59:48.752Z,33.77
2017-09-27T21:02:17.325Z,29.90
2017-09-27T21:04:46.245Z,29.67
2017-09-27T21:07:14.624Z,28.47
2017-09-27T21:09:43.074Z,32.00
2017-09-27T21:12:11.585Z,29.90
2017-09-27T21:14:39.979Z,30.30
2017-09-27T21:17:08.479Z,29.77
2017-09-27T21:19:36.946Z,27.87
2017-09-27T21:22:07.213Z,32.03
2017-09-27T21:24:35.786Z,30.40
2017-09-27T21:27:04.256Z,32.60
2017-09-27T21:29:32.875Z,34.87
2017-09-27T21:32:01.482Z,32.60
2017-09-27T21:34:30.628Z,33.00
2017-09-27T21:36:59.767Z,29.17
2017-09-27T21:39:28.497Z,35.63
2017-09-27T21:41:57.077Z,31.80
2017-09-27T21:44:25.613Z,32.67
2017-09-27T21:46:54.242Z,34.00
2017-09-27T21:49:22.639Z,35.43
2017-09-27T21:51:51.009Z,34.03
2017-09-27T21:54:20.467Z,32.60
2017-09-27T21:56:48.832Z,32.77
2017-09-27T21:59:17.218Z,32.40
2017-09-27T22:01:45.733Z,31.40
2017-09-27T22:04:14.920Z,32.60
2017-09-27T22:06:44.102Z,30.57
2017-09-27T22:09:12.913Z,32.70
2017-09-27T22:11:43.232Z,32.60
2017-09-27T22:14:12.369Z,35.20
2017-09-27T22:16:42.210Z,29.77
2017-09-27T22:19:10.900Z,33.10
2017-09-27T22:21:39.303Z,32.53
2017-09-27T22:24:07.737Z,31.60
2017-09-27T22:26:37.901Z,33.90
2017-09-27T22:29:06.278Z,34.67
2017-09-27T22:31:34.752Z,35.47
2017-09-27T22:34:03.221Z,35.57
2017-09-27T22:36:32.051Z,32.83
2017-09-27T22:39:01.371Z,32.17
2017-09-27T22:41:29.791Z,34.57
2017-09-27T22:43:58.993Z,34.57
2017-09-27T22:46:27.625Z,33.33
2017-09-27T22:48:55.987Z,33.20
2017-09-27T22:51:24.391Z,32.83
2017-09-27T22:53:52.912Z,35.13
2017-09-27T22:56:21.355Z,32.33
2017-09-27T22:58:49.752Z,33.20
2017-09-27T23:01:18.302Z,31.50
2017-09-27T23:03:46.721Z,29.87
2017-09-27T23:06:15.096Z,31.07
2017-09-27T23:08:43.837Z,31.50
2017-09-27T23:11:12.990Z,32.97
2017-09-27T23:13:41.399Z,34.00
2017-09-27T23:16:11.000Z,31.90
2017-09-27T23:18:39.405Z,30.70
2017-09-27T23:21:07.784Z,34.27
2017-09-27T23:23:36.437Z,35.17
2017-09-27T23:26:04.906Z,34.70
2017-09-27T23:28:33.314Z,33.90
2017-09-27T23:31:03.444Z,32.87
2017-09-27T23:33:32.655Z,29.50
2017-09-27T23:36:02.245Z,33.40
2017-09-27T23:38:31.448Z,32.37
2017-09-27T23:41:00.653Z,30.73
2017-09-27T23:43:29.058Z,32.73
2017-09-27T23:45:58.675Z,35.90
2017-09-27T23:48:27.086Z,35.30
2017-09-27T23:50:56.205Z,34.93
2017-09-27T23:53:24.610Z,33.23
2017-09-27T23:55:53.186Z,34.10
2017-09-27T23:58:21.808Z,38.10
